sensor_id;sensor_type;location;lat;lon;timestamp;P1;durP1;ratioP1;P2;durP2;ratioP2
21705;SDS011;11014;53.076;18.208;2022-08-04T00:02:22;14.35;;;10.93;;
21705;SDS011;11014;53.076;18.208;2022-08-04T00:04:57;15.00;;;10.80;;
21705;SDS011;11014;53.076;18.208;2022-08-04T00:10:13;13.63;;;10.25;;
21705;SDS011;11014;53.076;18.208;2022-08-04T00:12:48;14.35;;;10.35;;
21705;SDS011;11014;53.076;18.208;2022-08-04T00:15:19;12.13;;;10.07;;
21705;SDS011;11014;53.076;18.208;2022-08-04T00:17:48;13.43;;;9.98;;
21705;SDS011;11014;53.076;18.208;2022-08-04T00:20:21;18.27;;;10.07;;
21705;SDS011;11014;53.076;18.208;2022-08-04T00:22:52;14.87;;;10.53;;
21705;SDS011;11014;53.076;18.208;2022-08-04T00:25:20;12.18;;;9.88;;
21705;SDS011;11014;53.076;18.208;2022-08-04T00:27:49;13.32;;;10.27;;
21705;SDS011;11014;53.076;18.208;2022-08-04T00:30:18;14.90;;;10.68;;
21705;SDS011;11014;53.076;18.208;2022-08-04T00:32:47;11.60;;;10.15;;
21705;SDS011;11014;53.076;18.208;2022-08-04T00:35:16;13.10;;;9.90;;
21705;SDS011;11014;53.076;18.208;2022-08-04T00:37:45;12.82;;;9.13;;
21705;SDS011;11014;53.076;18.208;2022-08-04T00:43:32;11.63;;;9.60;;
21705;SDS011;11014;53.076;18.208;2022-08-04T00:46:07;15.30;;;10.25;;
21705;SDS011;11014;53.076;18.208;2022-08-04T00:51:36;10.23;;;9.15;;
21705;SDS011;11014;53.076;18.208;2022-08-04T00:57:49;11.90;;;9.88;;
21705;SDS011;11014;53.076;18.208;2022-08-04T01:00:43;11.80;;;9.13;;
21705;SDS011;11014;53.076;18.208;2022-08-04T01:03:36;12.07;;;9.90;;
21705;SDS011;11014;53.076;18.208;2022-08-04T01:06:36;12.52;;;9.25;;
21705;SDS011;11014;53.076;18.208;2022-08-04T01:12:25;9.40;;;8.43;;
21705;SDS011;11014;53.076;18.208;2022-08-04T01:15:09;11.43;;;8.98;;
21705;SDS011;11014;53.076;18.208;2022-08-04T01:18:05;11.15;;;9.00;;
21705;SDS011;11014;53.076;18.208;2022-08-04T01:20:47;9.52;;;8.50;;
21705;SDS011;11014;53.076;18.208;2022-08-04T01:23:45;11.48;;;9.00;;
21705;SDS011;11014;53.076;18.208;2022-08-04T01:26:30;10.00;;;9.00;;
21705;SDS011;11014;53.076;18.208;2022-08-04T01:29:26;11.10;;;9.00;;
21705;SDS011;11014;53.076;18.208;2022-08-04T01:32:28;11.10;;;8.95;;
21705;SDS011;11014;53.076;18.208;2022-08-04T01:35:01;11.40;;;9.18;;
21705;SDS011;11014;53.076;18.208;2022-08-04T01:38:12;10.02;;;8.93;;
21705;SDS011;11014;53.076;18.208;2022-08-04T01:40:52;14.10;;;9.43;;
21705;SDS011;11014;53.076;18.208;2022-08-04T01:43:24;10.40;;;9.10;;
21705;SDS011;11014;53.076;18.208;2022-08-04T01:45:59;9.98;;;8.77;;
21705;SDS011;11014;53.076;18.208;2022-08-04T01:48:29;10.13;;;8.82;;
21705;SDS011;11014;53.076;18.208;2022-08-04T01:51:02;11.13;;;8.85;;
21705;SDS011;11014;53.076;18.208;2022-08-04T01:53:32;13.02;;;9.15;;
21705;SDS011;11014;53.076;18.208;2022-08-04T01:56:04;12.65;;;8.95;;
21705;SDS011;11014;53.076;18.208;2022-08-04T01:58:34;10.77;;;8.85;;
21705;SDS011;11014;53.076;18.208;2022-08-04T02:01:09;9.70;;;8.60;;
21705;SDS011;11014;53.076;18.208;2022-08-04T02:03:43;10.38;;;8.55;;
21705;SDS011;11014;53.076;18.208;2022-08-04T02:09:29;9.60;;;8.60;;
21705;SDS011;11014;53.076;18.208;2022-08-04T02:18:22;9.65;;;8.65;;
21705;SDS011;11014;53.076;18.208;2022-08-04T02:21:01;11.48;;;8.80;;
21705;SDS011;11014;53.076;18.208;2022-08-04T02:26:05;11.65;;;8.38;;
21705;SDS011;11014;53.076;18.208;2022-08-04T02:28:47;9.65;;;7.95;;
21705;SDS011;11014;53.076;18.208;2022-08-04T02:31:26;10.35;;;8.73;;
21705;SDS011;11014;53.076;18.208;2022-08-04T02:36:43;10.95;;;9.27;;
21705;SDS011;11014;53.076;18.208;2022-08-04T02:39:16;10.13;;;9.13;;
21705;SDS011;11014;53.076;18.208;2022-08-04T02:41:47;9.43;;;8.35;;
21705;SDS011;11014;53.076;18.208;2022-08-04T02:44:21;10.18;;;9.07;;
21705;SDS011;11014;53.076;18.208;2022-08-04T02:46:50;13.35;;;9.55;;
21705;SDS011;11014;53.076;18.208;2022-08-04T02:49:20;13.43;;;9.77;;
21705;SDS011;11014;53.076;18.208;2022-08-04T02:51:51;10.50;;;9.35;;
21705;SDS011;11014;53.076;18.208;2022-08-04T02:56:59;11.55;;;9.25;;
21705;SDS011;11014;53.076;18.208;2022-08-04T03:02:10;11.85;;;10.00;;
21705;SDS011;11014;53.076;18.208;2022-08-04T03:04:55;11.38;;;10.02;;
21705;SDS011;11014;53.076;18.208;2022-08-04T03:15:20;13.25;;;9.93;;
21705;SDS011;11014;53.076;18.208;2022-08-04T03:24:11;12.75;;;9.75;;
21705;SDS011;11014;53.076;18.208;2022-08-04T03:30:03;16.58;;;9.23;;
21705;SDS011;11014;53.076;18.208;2022-08-04T03:38:30;11.98;;;9.50;;
21705;SDS011;11014;53.076;18.208;2022-08-04T03:41:35;13.70;;;9.50;;
21705;SDS011;11014;53.076;18.208;2022-08-04T03:50:01;16.92;;;9.60;;
21705;SDS011;11014;53.076;18.208;2022-08-04T03:55:44;13.02;;;8.95;;
21705;SDS011;11014;53.076;18.208;2022-08-04T03:58:29;13.18;;;9.77;;
21705;SDS011;11014;53.076;18.208;2022-08-04T04:04:53;12.13;;;9.32;;
21705;SDS011;11014;53.076;18.208;2022-08-04T04:16:30;10.60;;;9.45;;
21705;SDS011;11014;53.076;18.208;2022-08-04T04:19:21;14.35;;;8.90;;
21705;SDS011;11014;53.076;18.208;2022-08-04T04:36:15;13.48;;;9.45;;
21705;SDS011;11014;53.076;18.208;2022-08-04T04:39:00;11.70;;;9.35;;
21705;SDS011;11014;53.076;18.208;2022-08-04T04:42:09;11.63;;;10.43;;
21705;SDS011;11014;53.076;18.208;2022-08-04T04:59:05;11.60;;;9.73;;
21705;SDS011;11014;53.076;18.208;2022-08-04T05:04:50;12.18;;;9.77;;
21705;SDS011;11014;53.076;18.208;2022-08-04T05:13:20;11.05;;;9.82;;
21705;SDS011;11014;53.076;18.208;2022-08-04T05:16:24;11.27;;;9.73;;
21705;SDS011;11014;53.076;18.208;2022-08-04T05:22:05;11.90;;;10.40;;
21705;SDS011;11014;53.076;18.208;2022-08-04T05:24:42;11.93;;;10.70;;
21705;SDS011;11014;53.076;18.208;2022-08-04T05:27:25;12.55;;;10.02;;
21705;SDS011;11014;53.076;18.208;2022-08-04T05:29:59;13.45;;;10.27;;
21705;SDS011;11014;53.076;18.208;2022-08-04T05:32:41;11.73;;;10.63;;
21705;SDS011;11014;53.076;18.208;2022-08-04T05:35:49;21.38;;;10.77;;
21705;SDS011;11014;53.076;18.208;2022-08-04T05:38:37;11.60;;;10.15;;
21705;SDS011;11014;53.076;18.208;2022-08-04T05:41:08;11.82;;;10.25;;
21705;SDS011;11014;53.076;18.208;2022-08-04T05:43:38;11.13;;;9.80;;
21705;SDS011;11014;53.076;18.208;2022-08-04T05:46:10;11.40;;;10.18;;
21705;SDS011;11014;53.076;18.208;2022-08-04T05:48:40;10.43;;;9.33;;
21705;SDS011;11014;53.076;18.208;2022-08-04T05:51:11;12.90;;;9.80;;
21705;SDS011;11014;53.076;18.208;2022-08-04T05:53:41;10.68;;;9.65;;
21705;SDS011;11014;53.076;18.208;2022-08-04T05:56:13;10.93;;;9.77;;
21705;SDS011;11014;53.076;18.208;2022-08-04T05:58:42;14.35;;;9.90;;
21705;SDS011;11014;53.076;18.208;2022-08-04T06:01:13;10.40;;;9.30;;
21705;SDS011;11014;53.076;18.208;2022-08-04T06:03:44;11.43;;;9.57;;
21705;SDS011;11014;53.076;18.208;2022-08-04T06:06:16;12.00;;;9.27;;
21705;SDS011;11014;53.076;18.208;2022-08-04T06:08:47;11.57;;;9.10;;
21705;SDS011;11014;53.076;18.208;2022-08-04T06:11:15;10.70;;;9.60;;
21705;SDS011;11014;53.076;18.208;2022-08-04T06:14:08;11.02;;;9.40;;
21705;SDS011;11014;53.076;18.208;2022-08-04T06:16:37;10.30;;;9.23;;
21705;SDS011;11014;53.076;18.208;2022-08-04T06:19:07;11.55;;;9.13;;
21705;SDS011;11014;53.076;18.208;2022-08-04T06:21:58;10.82;;;8.80;;
21705;SDS011;11014;53.076;18.208;2022-08-04T06:24:30;11.38;;;9.38;;
21705;SDS011;11014;53.076;18.208;2022-08-04T06:27:01;10.75;;;9.23;;
21705;SDS011;11014;53.076;18.208;2022-08-04T06:29:31;9.85;;;8.85;;
21705;SDS011;11014;53.076;18.208;2022-08-04T06:32:07;10.55;;;9.32;;
21705;SDS011;11014;53.076;18.208;2022-08-04T06:35:08;9.90;;;8.93;;
21705;SDS011;11014;53.076;18.208;2022-08-04T06:37:37;9.63;;;8.73;;
21705;SDS011;11014;53.076;18.208;2022-08-04T06:40:15;12.15;;;9.27;;
21705;SDS011;11014;53.076;18.208;2022-08-04T06:43:00;11.02;;;8.93;;
21705;SDS011;11014;53.076;18.208;2022-08-04T06:45:30;10.20;;;9.20;;
21705;SDS011;11014;53.076;18.208;2022-08-04T06:48:02;10.15;;;9.13;;
21705;SDS011;11014;53.076;18.208;2022-08-04T06:50:34;12.52;;;9.57;;
21705;SDS011;11014;53.076;18.208;2022-08-04T06:53:24;11.18;;;9.60;;
21705;SDS011;11014;53.076;18.208;2022-08-04T06:55:54;9.55;;;8.63;;
21705;SDS011;11014;53.076;18.208;2022-08-04T06:58:23;10.60;;;9.40;;
21705;SDS011;11014;53.076;18.208;2022-08-04T07:00:52;9.85;;;8.85;;
21705;SDS011;11014;53.076;18.208;2022-08-04T07:03:22;10.65;;;9.20;;
21705;SDS011;11014;53.076;18.208;2022-08-04T07:05:51;9.93;;;8.90;;
21705;SDS011;11014;53.076;18.208;2022-08-04T07:08:20;11.52;;;9.13;;
21705;SDS011;11014;53.076;18.208;2022-08-04T07:10:49;9.88;;;8.88;;
21705;SDS011;11014;53.076;18.208;2022-08-04T07:13:20;9.60;;;8.70;;
21705;SDS011;11014;53.076;18.208;2022-08-04T07:15:50;9.90;;;9.00;;
21705;SDS011;11014;53.076;18.208;2022-08-04T07:18:19;9.65;;;8.68;;
21705;SDS011;11014;53.076;18.208;2022-08-04T07:20:48;11.18;;;9.43;;
21705;SDS011;11014;53.076;18.208;2022-08-04T07:23:22;9.93;;;8.93;;
21705;SDS011;11014;53.076;18.208;2022-08-04T07:25:52;9.98;;;8.98;;
21705;SDS011;11014;53.076;18.208;2022-08-04T07:28:40;9.75;;;8.75;;
21705;SDS011;11014;53.076;18.208;2022-08-04T07:31:10;10.23;;;9.23;;
21705;SDS011;11014;53.076;18.208;2022-08-04T07:34:02;10.20;;;9.20;;
21705;SDS011;11014;53.076;18.208;2022-08-04T07:36:49;11.77;;;8.98;;
21705;SDS011;11014;53.076;18.208;2022-08-04T07:39:24;11.02;;;8.70;;
21705;SDS011;11014;53.076;18.208;2022-08-04T07:41:58;9.95;;;9.05;;
21705;SDS011;11014;53.076;18.208;2022-08-04T07:44:30;10.68;;;9.18;;
21705;SDS011;11014;53.076;18.208;2022-08-04T07:47:00;10.13;;;9.13;;
21705;SDS011;11014;53.076;18.208;2022-08-04T07:49:30;10.30;;;9.20;;
21705;SDS011;11014;53.076;18.208;2022-08-04T07:52:19;9.55;;;8.57;;
21705;SDS011;11014;53.076;18.208;2022-08-04T07:54:48;10.55;;;9.50;;
21705;SDS011;11014;53.076;18.208;2022-08-04T07:57:18;13.20;;;9.30;;
21705;SDS011;11014;53.076;18.208;2022-08-04T08:00:08;10.52;;;9.43;;
21705;SDS011;11014;53.076;18.208;2022-08-04T08:02:41;10.60;;;9.45;;
21705;SDS011;11014;53.076;18.208;2022-08-04T08:05:13;10.15;;;9.10;;
21705;SDS011;11014;53.076;18.208;2022-08-04T08:07:47;9.82;;;8.77;;
21705;SDS011;11014;53.076;18.208;2022-08-04T08:10:22;10.15;;;9.15;;
21705;SDS011;11014;53.076;18.208;2022-08-04T08:12:52;11.73;;;9.75;;
21705;SDS011;11014;53.076;18.208;2022-08-04T08:15:21;9.50;;;8.68;;
21705;SDS011;11014;53.076;18.208;2022-08-04T08:17:50;10.90;;;9.30;;
21705;SDS011;11014;53.076;18.208;2022-08-04T08:20:27;10.57;;;9.57;;
21705;SDS011;11014;53.076;18.208;2022-08-04T08:22:58;9.68;;;8.77;;
21705;SDS011;11014;53.076;18.208;2022-08-04T08:25:29;10.52;;;8.80;;
21705;SDS011;11014;53.076;18.208;2022-08-04T08:28:00;10.35;;;9.25;;
21705;SDS011;11014;53.076;18.208;2022-08-04T08:30:31;9.82;;;8.57;;
21705;SDS011;11014;53.076;18.208;2022-08-04T08:33:03;9.80;;;8.80;;
21705;SDS011;11014;53.076;18.208;2022-08-04T08:35:58;9.77;;;8.70;;
21705;SDS011;11014;53.076;18.208;2022-08-04T08:38:39;10.00;;;8.80;;
21705;SDS011;11014;53.076;18.208;2022-08-04T08:41:37;9.88;;;8.88;;
21705;SDS011;11014;53.076;18.208;2022-08-04T08:47:46;11.65;;;9.40;;
21705;SDS011;11014;53.076;18.208;2022-08-04T08:50:46;12.68;;;9.43;;
21705;SDS011;11014;53.076;18.208;2022-08-04T08:53:29;10.13;;;9.02;;
21705;SDS011;11014;53.076;18.208;2022-08-04T08:56:38;9.68;;;8.77;;
21705;SDS011;11014;53.076;18.208;2022-08-04T09:05:04;10.85;;;8.23;;
21705;SDS011;11014;53.076;18.208;2022-08-04T09:10:46;9.38;;;8.30;;
21705;SDS011;11014;53.076;18.208;2022-08-04T09:13:22;10.13;;;8.00;;
21705;SDS011;11014;53.076;18.208;2022-08-04T09:27:53;9.25;;;8.32;;
21705;SDS011;11014;53.076;18.208;2022-08-04T09:36:42;8.85;;;7.78;;
21705;SDS011;11014;53.076;18.208;2022-08-04T09:39:25;12.90;;;8.43;;
21705;SDS011;11014;53.076;18.208;2022-08-04T09:44:57;9.65;;;8.20;;
21705;SDS011;11014;53.076;18.208;2022-08-04T09:58:32;8.68;;;7.65;;
21705;SDS011;11014;53.076;18.208;2022-08-04T10:01:13;9.45;;;8.55;;
21705;SDS011;11014;53.076;18.208;2022-08-04T10:03:54;9.13;;;8.15;;
21705;SDS011;11014;53.076;18.208;2022-08-04T10:15:03;10.43;;;7.82;;
21705;SDS011;11014;53.076;18.208;2022-08-04T10:21:02;8.55;;;7.75;;
21705;SDS011;11014;53.076;18.208;2022-08-04T10:40:46;9.00;;;8.10;;
21705;SDS011;11014;53.076;18.208;2022-08-04T10:46:07;9.50;;;8.15;;
21705;SDS011;11014;53.076;18.208;2022-08-04T10:48:42;9.25;;;8.30;;
21705;SDS011;11014;53.076;18.208;2022-08-04T10:51:20;8.50;;;7.70;;
21705;SDS011;11014;53.076;18.208;2022-08-04T10:53:57;8.75;;;7.95;;
21705;SDS011;11014;53.076;18.208;2022-08-04T10:56:37;8.75;;;7.93;;
21705;SDS011;11014;53.076;18.208;2022-08-04T10:59:15;8.40;;;7.60;;
21705;SDS011;11014;53.076;18.208;2022-08-04T11:01:47;8.48;;;7.68;;
21705;SDS011;11014;53.076;18.208;2022-08-04T11:04:40;8.75;;;7.82;;
21705;SDS011;11014;53.076;18.208;2022-08-04T11:07:12;15.52;;;8.50;;
21705;SDS011;11014;53.076;18.208;2022-08-04T11:12:16;9.00;;;8.10;;
21705;SDS011;11014;53.076;18.208;2022-08-04T11:15:03;9.25;;;7.88;;
21705;SDS011;11014;53.076;18.208;2022-08-04T11:17:46;8.52;;;7.70;;
21705;SDS011;11014;53.076;18.208;2022-08-04T11:20:57;8.70;;;7.90;;
21705;SDS011;11014;53.076;18.208;2022-08-04T11:23:41;9.07;;;8.10;;
21705;SDS011;11014;53.076;18.208;2022-08-04T11:29:31;9.47;;;8.17;;
21705;SDS011;11014;53.076;18.208;2022-08-04T11:32:18;8.77;;;7.95;;
21705;SDS011;11014;53.076;18.208;2022-08-04T11:34:52;9.60;;;7.93;;
21705;SDS011;11014;53.076;18.208;2022-08-04T11:37:35;8.38;;;7.57;;
21705;SDS011;11014;53.076;18.208;2022-08-04T11:40:19;8.95;;;8.15;;
21705;SDS011;11014;53.076;18.208;2022-08-04T11:42:54;8.55;;;7.80;;
21705;SDS011;11014;53.076;18.208;2022-08-04T11:45:29;8.77;;;7.90;;
21705;SDS011;11014;53.076;18.208;2022-08-04T11:48:06;8.43;;;7.65;;
21705;SDS011;11014;53.076;18.208;2022-08-04T11:50:43;8.88;;;8.00;;
21705;SDS011;11014;53.076;18.208;2022-08-04T11:53:22;8.50;;;7.70;;
21705;SDS011;11014;53.076;18.208;2022-08-04T11:58:35;8.50;;;7.55;;
21705;SDS011;11014;53.076;18.208;2022-08-04T12:03:45;8.15;;;7.38;;
21705;SDS011;11014;53.076;18.208;2022-08-04T12:09:31;8.70;;;7.63;;
21705;SDS011;11014;53.076;18.208;2022-08-04T12:12:24;8.90;;;8.00;;
21705;SDS011;11014;53.076;18.208;2022-08-04T12:15:07;11.02;;;8.13;;
21705;SDS011;11014;53.076;18.208;2022-08-04T12:17:48;8.73;;;7.82;;
21705;SDS011;11014;53.076;18.208;2022-08-04T12:20:26;8.57;;;7.68;;
21705;SDS011;11014;53.076;18.208;2022-08-04T12:23:16;11.10;;;7.75;;
21705;SDS011;11014;53.076;18.208;2022-08-04T12:25:53;8.75;;;7.90;;
21705;SDS011;11014;53.076;18.208;2022-08-04T12:28:28;9.95;;;7.95;;
21705;SDS011;11014;53.076;18.208;2022-08-04T12:31:23;9.13;;;7.80;;
21705;SDS011;11014;53.076;18.208;2022-08-04T12:33:58;8.48;;;7.60;;
21705;SDS011;11014;53.076;18.208;2022-08-04T12:36:47;8.70;;;7.18;;
21705;SDS011;11014;53.076;18.208;2022-08-04T12:39:22;8.45;;;7.65;;
21705;SDS011;11014;53.076;18.208;2022-08-04T12:42:00;8.63;;;7.72;;
21705;SDS011;11014;53.076;18.208;2022-08-04T12:44:35;8.60;;;7.70;;
21705;SDS011;11014;53.076;18.208;2022-08-04T12:50:01;8.40;;;7.68;;
21705;SDS011;11014;53.076;18.208;2022-08-04T12:52:33;10.30;;;7.88;;
21705;SDS011;11014;53.076;18.208;2022-08-04T12:55:30;8.02;;;7.30;;
21705;SDS011;11014;53.076;18.208;2022-08-04T12:58:10;8.40;;;7.60;;
21705;SDS011;11014;53.076;18.208;2022-08-04T13:03:14;8.07;;;7.37;;
21705;SDS011;11014;53.076;18.208;2022-08-04T13:05:44;8.57;;;7.68;;
21705;SDS011;11014;53.076;18.208;2022-08-04T13:10:48;8.02;;;7.25;;
21705;SDS011;11014;53.076;18.208;2022-08-04T13:13:20;7.75;;;7.05;;
21705;SDS011;11014;53.076;18.208;2022-08-04T13:21:32;8.00;;;7.30;;
21705;SDS011;11014;53.076;18.208;2022-08-04T13:24:22;8.23;;;7.25;;
21705;SDS011;11014;53.076;18.208;2022-08-04T13:27:04;8.32;;;7.57;;
21705;SDS011;11014;53.076;18.208;2022-08-04T13:29:44;8.55;;;7.28;;
21705;SDS011;11014;53.076;18.208;2022-08-04T13:32:30;9.27;;;7.30;;
21705;SDS011;11014;53.076;18.208;2022-08-04T13:35:01;8.33;;;7.53;;
21705;SDS011;11014;53.076;18.208;2022-08-04T13:37:33;8.82;;;7.57;;
21705;SDS011;11014;53.076;18.208;2022-08-04T13:40:04;8.00;;;7.00;;
21705;SDS011;11014;53.076;18.208;2022-08-04T13:42:36;9.07;;;6.88;;
21705;SDS011;11014;53.076;18.208;2022-08-04T13:45:07;8.45;;;7.50;;
21705;SDS011;11014;53.076;18.208;2022-08-04T13:47:37;7.53;;;6.82;;
21705;SDS011;11014;53.076;18.208;2022-08-04T13:50:19;9.07;;;7.20;;
21705;SDS011;11014;53.076;18.208;2022-08-04T13:52:54;8.20;;;7.03;;
21705;SDS011;11014;53.076;18.208;2022-08-04T13:55:28;8.23;;;7.15;;
21705;SDS011;11014;53.076;18.208;2022-08-04T13:58:04;8.48;;;7.38;;
21705;SDS011;11014;53.076;18.208;2022-08-04T14:00:47;8.00;;;7.20;;
21705;SDS011;11014;53.076;18.208;2022-08-04T14:06:25;7.68;;;6.97;;
21705;SDS011;11014;53.076;18.208;2022-08-04T14:09:00;9.10;;;7.10;;
21705;SDS011;11014;53.076;18.208;2022-08-04T14:11:38;7.80;;;6.85;;
21705;SDS011;11014;53.076;18.208;2022-08-04T14:19:49;9.55;;;7.93;;
21705;SDS011;11014;53.076;18.208;2022-08-04T14:22:29;8.55;;;7.72;;
21705;SDS011;11014;53.076;18.208;2022-08-04T14:30:32;9.20;;;8.30;;
21705;SDS011;11014;53.076;18.208;2022-08-04T14:33:05;13.52;;;8.80;;
21705;SDS011;11014;53.076;18.208;2022-08-04T14:35:56;10.70;;;8.82;;
21705;SDS011;11014;53.076;18.208;2022-08-04T14:41:17;13.27;;;9.07;;
21705;SDS011;11014;53.076;18.208;2022-08-04T14:44:09;13.00;;;9.40;;
21705;SDS011;11014;53.076;18.208;2022-08-04T14:46:51;11.75;;;8.75;;
21705;SDS011;11014;53.076;18.208;2022-08-04T14:49:21;10.35;;;8.70;;
21705;SDS011;11014;53.076;18.208;2022-08-04T14:51:57;10.63;;;8.82;;
21705;SDS011;11014;53.076;18.208;2022-08-04T14:54:29;11.50;;;8.88;;
21705;SDS011;11014;53.076;18.208;2022-08-04T14:57:04;14.85;;;9.15;;
21705;SDS011;11014;53.076;18.208;2022-08-04T14:59:39;11.85;;;9.15;;
21705;SDS011;11014;53.076;18.208;2022-08-04T15:02:29;10.23;;;9.13;;
21705;SDS011;11014;53.076;18.208;2022-08-04T15:04:59;11.75;;;9.10;;
21705;SDS011;11014;53.076;18.208;2022-08-04T15:07:49;12.18;;;9.27;;
21705;SDS011;11014;53.076;18.208;2022-08-04T15:10:19;12.63;;;9.35;;
21705;SDS011;11014;53.076;18.208;2022-08-04T15:12:47;13.07;;;9.88;;
21705;SDS011;11014;53.076;18.208;2022-08-04T15:15:16;10.43;;;9.05;;
21705;SDS011;11014;53.076;18.208;2022-08-04T15:18:06;11.60;;;10.20;;
21705;SDS011;11014;53.076;18.208;2022-08-04T15:20:38;12.70;;;9.60;;
21705;SDS011;11014;53.076;18.208;2022-08-04T15:23:09;11.45;;;9.48;;
21705;SDS011;11014;53.076;18.208;2022-08-04T15:25:38;11.02;;;9.90;;
21705;SDS011;11014;53.076;18.208;2022-08-04T15:28:10;12.73;;;9.70;;
21705;SDS011;11014;53.076;18.208;2022-08-04T15:30:43;11.98;;;9.80;;
21705;SDS011;11014;53.076;18.208;2022-08-04T15:33:20;13.80;;;9.73;;
21705;SDS011;11014;53.076;18.208;2022-08-04T15:36:12;10.27;;;9.27;;
21705;SDS011;11014;53.076;18.208;2022-08-04T15:38:50;10.98;;;9.50;;
21705;SDS011;11014;53.076;18.208;2022-08-04T15:41:31;10.82;;;9.35;;
21705;SDS011;11014;53.076;18.208;2022-08-04T15:44:28;14.65;;;9.35;;
21705;SDS011;11014;53.076;18.208;2022-08-04T15:49:31;11.70;;;10.27;;
21705;SDS011;11014;53.076;18.208;2022-08-04T15:52:01;14.50;;;9.82;;
21705;SDS011;11014;53.076;18.208;2022-08-04T15:54:39;12.02;;;9.40;;
21705;SDS011;11014;53.076;18.208;2022-08-04T15:57:55;11.55;;;9.38;;
21705;SDS011;11014;53.076;18.208;2022-08-04T16:25:45;17.80;;;9.90;;
21705;SDS011;11014;53.076;18.208;2022-08-04T16:28:37;11.60;;;9.30;;
21705;SDS011;11014;53.076;18.208;2022-08-04T16:31:08;16.10;;;10.10;;
21705;SDS011;11014;53.076;18.208;2022-08-04T16:33:38;14.55;;;9.75;;
21705;SDS011;11014;53.076;18.208;2022-08-04T16:36:11;10.90;;;9.48;;
21705;SDS011;11014;53.076;18.208;2022-08-04T16:44:27;14.23;;;9.90;;
21705;SDS011;11014;53.076;18.208;2022-08-04T16:47:15;11.70;;;9.13;;
21705;SDS011;11014;53.076;18.208;2022-08-04T16:50:19;10.98;;;9.63;;
21705;SDS011;11014;53.076;18.208;2022-08-04T16:52:50;14.38;;;9.63;;
21705;SDS011;11014;53.076;18.208;2022-08-04T16:55:24;12.70;;;10.27;;
21705;SDS011;11014;53.076;18.208;2022-08-04T16:57:55;10.07;;;9.07;;
21705;SDS011;11014;53.076;18.208;2022-08-04T17:00:36;12.02;;;9.90;;
21705;SDS011;11014;53.076;18.208;2022-08-04T17:03:06;12.18;;;9.63;;
21705;SDS011;11014;53.076;18.208;2022-08-04T17:05:36;10.90;;;9.20;;
21705;SDS011;11014;53.076;18.208;2022-08-04T17:08:08;9.82;;;8.98;;
21705;SDS011;11014;53.076;18.208;2022-08-04T17:10:56;11.70;;;10.50;;
21705;SDS011;11014;53.076;18.208;2022-08-04T17:13:25;11.68;;;9.40;;
21705;SDS011;11014;53.076;18.208;2022-08-04T17:16:19;11.75;;;9.30;;
21705;SDS011;11014;53.076;18.208;2022-08-04T17:18:51;10.63;;;9.60;;
21705;SDS011;11014;53.076;18.208;2022-08-04T17:21:23;10.30;;;9.40;;
21705;SDS011;11014;53.076;18.208;2022-08-04T17:23:56;11.32;;;9.55;;
21705;SDS011;11014;53.076;18.208;2022-08-04T17:26:45;10.60;;;9.50;;
21705;SDS011;11014;53.076;18.208;2022-08-04T17:29:22;11.40;;;9.68;;
21705;SDS011;11014;53.076;18.208;2022-08-04T17:32:12;11.82;;;9.75;;
21705;SDS011;11014;53.076;18.208;2022-08-04T17:34:45;11.93;;;9.10;;
21705;SDS011;11014;53.076;18.208;2022-08-04T17:37:16;12.02;;;9.77;;
21705;SDS011;11014;53.076;18.208;2022-08-04T17:40:09;10.80;;;9.63;;
21705;SDS011;11014;53.076;18.208;2022-08-04T17:43:05;10.65;;;9.40;;
21705;SDS011;11014;53.076;18.208;2022-08-04T17:51:59;11.98;;;9.88;;
21705;SDS011;11014;53.076;18.208;2022-08-04T17:54:37;10.93;;;9.75;;
21705;SDS011;11014;53.076;18.208;2022-08-04T17:57:14;11.02;;;10.13;;
21705;SDS011;11014;53.076;18.208;2022-08-04T17:59:52;11.57;;;10.40;;
21705;SDS011;11014;53.076;18.208;2022-08-04T18:02:27;12.75;;;9.90;;
21705;SDS011;11014;53.076;18.208;2022-08-04T18:05:01;11.13;;;10.05;;
21705;SDS011;11014;53.076;18.208;2022-08-04T18:07:36;10.68;;;9.68;;
21705;SDS011;11014;53.076;18.208;2022-08-04T18:10:39;11.05;;;9.95;;
21705;SDS011;11014;53.076;18.208;2022-08-04T18:13:24;10.52;;;9.30;;
21705;SDS011;11014;53.076;18.208;2022-08-04T18:16:03;10.68;;;9.40;;
21705;SDS011;11014;53.076;18.208;2022-08-04T18:21:37;10.75;;;9.70;;
21705;SDS011;11014;53.076;18.208;2022-08-04T18:24:27;10.75;;;9.55;;
21705;SDS011;11014;53.076;18.208;2022-08-04T18:27:21;10.55;;;9.52;;
21705;SDS011;11014;53.076;18.208;2022-08-04T18:29:51;11.00;;;9.90;;
21705;SDS011;11014;53.076;18.208;2022-08-04T18:32:40;12.52;;;9.68;;
21705;SDS011;11014;53.076;18.208;2022-08-04T18:35:30;11.23;;;9.88;;
21705;SDS011;11014;53.076;18.208;2022-08-04T18:38:22;10.57;;;9.57;;
21705;SDS011;11014;53.076;18.208;2022-08-04T18:40:52;11.15;;;10.15;;
21705;SDS011;11014;53.076;18.208;2022-08-04T18:43:22;13.27;;;9.82;;
21705;SDS011;11014;53.076;18.208;2022-08-04T18:45:57;10.55;;;9.55;;
21705;SDS011;11014;53.076;18.208;2022-08-04T18:48:26;10.70;;;9.55;;
21705;SDS011;11014;53.076;18.208;2022-08-04T18:51:04;11.35;;;10.25;;
21705;SDS011;11014;53.076;18.208;2022-08-04T18:53:51;12.50;;;10.23;;
21705;SDS011;11014;53.076;18.208;2022-08-04T18:56:26;10.50;;;9.50;;
21705;SDS011;11014;53.076;18.208;2022-08-04T18:59:00;10.25;;;9.35;;
21705;SDS011;11014;53.076;18.208;2022-08-04T19:01:31;10.60;;;9.55;;
21705;SDS011;11014;53.076;18.208;2022-08-04T19:04:19;10.88;;;9.63;;
21705;SDS011;11014;53.076;18.208;2022-08-04T19:07:04;11.15;;;9.48;;
21705;SDS011;11014;53.076;18.208;2022-08-04T19:09:53;10.98;;;9.80;;
21705;SDS011;11014;53.076;18.208;2022-08-04T19:12:26;10.63;;;9.57;;
21705;SDS011;11014;53.076;18.208;2022-08-04T19:14:56;10.80;;;9.80;;
21705;SDS011;11014;53.076;18.208;2022-08-04T19:17:38;10.38;;;9.48;;
21705;SDS011;11014;53.076;18.208;2022-08-04T19:20:27;9.55;;;8.65;;
21705;SDS011;11014;53.076;18.208;2022-08-04T19:22:57;10.27;;;9.27;;
21705;SDS011;11014;53.076;18.208;2022-08-04T19:25:46;10.32;;;9.38;;
21705;SDS011;11014;53.076;18.208;2022-08-04T19:28:32;11.70;;;10.18;;
21705;SDS011;11014;53.076;18.208;2022-08-04T19:31:04;11.02;;;9.90;;
21705;SDS011;11014;53.076;18.208;2022-08-04T19:33:34;13.88;;;10.35;;
21705;SDS011;11014;53.076;18.208;2022-08-04T19:36:23;11.25;;;10.25;;
21705;SDS011;11014;53.076;18.208;2022-08-04T19:38:58;11.43;;;10.32;;
21705;SDS011;11014;53.076;18.208;2022-08-04T19:41:28;12.60;;;10.30;;
21705;SDS011;11014;53.076;18.208;2022-08-04T19:44:20;11.25;;;10.15;;
21705;SDS011;11014;53.076;18.208;2022-08-04T19:46:50;14.77;;;10.25;;
21705;SDS011;11014;53.076;18.208;2022-08-04T19:49:19;11.90;;;10.05;;
21705;SDS011;11014;53.076;18.208;2022-08-04T19:52:08;11.82;;;10.55;;
21705;SDS011;11014;53.076;18.208;2022-08-04T19:54:36;11.32;;;10.07;;
21705;SDS011;11014;53.076;18.208;2022-08-04T19:57:07;10.80;;;9.88;;
21705;SDS011;11014;53.076;18.208;2022-08-04T19:59:38;11.13;;;10.02;;
21705;SDS011;11014;53.076;18.208;2022-08-04T20:02:15;12.52;;;10.63;;
21705;SDS011;11014;53.076;18.208;2022-08-04T20:07:39;12.00;;;10.75;;
21705;SDS011;11014;53.076;18.208;2022-08-04T20:10:08;11.68;;;10.52;;
21705;SDS011;11014;53.076;18.208;2022-08-04T20:12:39;11.30;;;10.20;;
21705;SDS011;11014;53.076;18.208;2022-08-04T20:15:09;11.75;;;10.30;;